createdAt,value
2023-10-27T00:03:18.957Z,20.02
2023-10-27T00:08:39.855Z,19.45
2023-10-27T00:14:01.051Z,18.95
2023-10-27T00:19:22.251Z,22.77
2023-10-27T00:24:43.132Z,22.10
2023-10-27T00:30:04.698Z,21.52
2023-10-27T00:35:25.763Z,23.77
2023-10-27T00:40:47.261Z,19.77
2023-10-27T00:46:08.165Z,18.90
2023-10-27T00:51:29.881Z,19.70
2023-10-27T00:56:51.186Z,17.70
2023-10-27T01:02:12.698Z,20.85
2023-10-27T01:07:35.893Z,18.77
2023-10-27T01:12:56.979Z,19.55
2023-10-27T01:18:17.897Z,22.40
2023-10-27T01:23:38.793Z,23.88
2023-10-27T01:28:59.888Z,19.52
2023-10-27T01:34:21.098Z,21.60
2023-10-27T01:39:42.048Z,17.83
2023-10-27T01:45:07.189Z,18.08
2023-10-27T01:50:28.321Z,21.30
2023-10-27T01:55:49.360Z,21.15
2023-10-27T02:01:12.118Z,20.45
2023-10-27T02:06:33.057Z,18.80
2023-10-27T02:11:53.844Z,20.13
2023-10-27T02:17:14.721Z,21.25
2023-10-27T02:22:35.737Z,17.40
2023-10-27T02:27:56.964Z,16.67
2023-10-27T02:33:18.082Z,17.63
2023-10-27T02:38:39.200Z,17.30
2023-10-27T02:44:00.182Z,19.27
2023-10-27T02:49:21.219Z,20.95
2023-10-27T02:54:42.067Z,16.02
2023-10-27T03:00:07.440Z,19.05
2023-10-27T03:05:28.195Z,18.63
2023-10-27T03:10:49.452Z,18.67
2023-10-27T03:16:10.387Z,15.00
2023-10-27T03:21:31.190Z,17.13
2023-10-27T03:26:52.381Z,14.52
2023-10-27T03:32:13.446Z,20.15
2023-10-27T03:37:34.812Z,12.45
2023-10-27T03:42:55.854Z,14.70
2023-10-27T03:48:16.737Z,15.07
2023-10-27T03:53:37.912Z,15.20
2023-10-27T03:58:59.096Z,14.88
2023-10-27T04:04:19.917Z,19.23
2023-10-27T04:09:40.933Z,18.67
2023-10-27T04:15:02.660Z,14.23
2023-10-27T04:20:23.827Z,15.02
2023-10-27T04:25:44.733Z,17.80
2023-10-27T04:31:05.935Z,14.45
2023-10-27T04:36:26.775Z,15.85
2023-10-27T04:41:47.914Z,11.43
2023-10-27T04:47:09.070Z,12.90
2023-10-27T04:52:30.115Z,13.32
2023-10-27T04:57:50.985Z,15.05
2023-10-27T05:03:12.060Z,11.68
2023-10-27T05:08:33.045Z,14.57
2023-10-27T05:13:54.108Z,13.95
2023-10-27T05:19:15.096Z,17.00
2023-10-27T06:51:30.386Z,27.17
2023-10-27T06:56:51.608Z,24.67
2023-10-27T07:02:12.913Z,25.20
2023-10-27T07:07:34.061Z,20.95
2023-10-27T07:12:55.271Z,25.40
2023-10-27T07:18:16.385Z,22.30
2023-10-27T07:23:37.526Z,23.00
2023-10-27T07:28:58.501Z,22.27
2023-10-27T07:34:19.672Z,18.98
2023-10-27T07:39:40.677Z,18.08
2023-10-27T07:45:01.847Z,19.70
2023-10-27T07:50:23.096Z,19.15
2023-10-27T07:55:43.981Z,21.02
2023-10-27T08:01:05.120Z,19.20
2023-10-27T08:06:26.139Z,18.83
2023-10-27T08:11:49.816Z,17.13
2023-10-27T08:17:10.602Z,17.37
2023-10-27T08:22:31.909Z,16.77
2023-10-27T08:27:52.912Z,18.00
2023-10-27T08:33:14.180Z,17.08
2023-10-27T08:38:35.323Z,16.55
2023-10-27T08:43:57.089Z,18.23
2023-10-27T08:54:41.624Z,18.88
2023-10-27T09:00:02.917Z,20.05
2023-10-27T09:05:24.000Z,16.35
2023-10-27T09:10:44.920Z,17.55
2023-10-27T09:16:05.879Z,19.10
2023-10-27T09:21:33.351Z,19.88
2023-10-27T09:26:56.223Z,21.30
2023-10-27T09:32:29.343Z,19.13
2023-10-27T09:37:50.918Z,18.40
2023-10-27T09:43:22.023Z,18.02
2023-10-27T09:48:44.326Z,21.10
2023-10-27T09:54:06.380Z,20.45
2023-10-27T09:59:29.149Z,19.02
2023-10-27T10:04:53.338Z,18.40
2023-10-27T10:10:31.162Z,21.02
2023-10-27T10:16:00.087Z,19.85
2023-10-27T10:21:34.778Z,18.65
2023-10-27T10:27:06.879Z,19.20
2023-10-27T10:32:32.630Z,19.20
2023-10-27T10:37:54.379Z,19.02
2023-10-27T10:43:19.367Z,18.95
2023-10-27T10:48:45.774Z,21.35
2023-10-27T10:54:13.314Z,21.33
2023-10-27T10:59:34.064Z,19.95
2023-10-27T11:04:55.106Z,19.48
2023-10-27T11:10:22.355Z,20.73
2023-10-27T11:15:47.007Z,23.33
2023-10-27T11:21:18.872Z,19.85
2023-10-27T11:26:41.031Z,21.40
2023-10-27T11:32:15.967Z,21.83
2023-10-27T11:37:36.894Z,23.45
2023-10-27T11:42:57.950Z,21.67
2023-10-27T11:48:19.218Z,22.25
2023-10-27T11:53:44.131Z,23.48
2023-10-27T11:59:05.834Z,21.30
2023-10-27T12:04:26.913Z,22.70
2023-10-27T12:09:48.131Z,22.75
2023-10-27T12:15:09.678Z,24.05
2023-10-27T12:20:31.194Z,24.65
2023-10-27T12:25:52.257Z,25.63
2023-10-27T12:31:13.792Z,25.67
2023-10-27T12:36:34.778Z,28.83
2023-10-27T12:41:55.889Z,35.33
2023-10-27T12:47:17.349Z,25.33
2023-10-27T12:52:39.302Z,27.77
2023-10-27T12:58:00.856Z,26.08
2023-10-27T13:03:21.750Z,25.10
2023-10-27T13:08:42.624Z,23.50
2023-10-27T13:14:04.412Z,27.42
2023-10-27T13:19:25.279Z,26.58
2023-10-27T13:24:46.472Z,19.83
2023-10-27T13:30:08.237Z,19.55
2023-10-27T13:35:29.533Z,19.48
2023-10-27T13:40:50.593Z,23.90
2023-10-27T13:46:11.520Z,22.52
2023-10-27T13:51:32.883Z,23.30
2023-10-27T13:56:53.772Z,21.65
2023-10-27T14:02:15.651Z,19.52
2023-10-27T14:07:37.282Z,23.23
2023-10-27T14:12:58.215Z,21.52
2023-10-27T14:18:19.173Z,20.65
2023-10-27T14:23:40.210Z,19.38
2023-10-27T14:29:01.756Z,22.23
2023-10-27T14:34:23.193Z,22.88
2023-10-27T14:39:43.973Z,21.63
2023-10-27T14:45:05.449Z,21.52
2023-10-27T14:50:26.514Z,23.25
2023-10-27T14:55:47.649Z,21.70
2023-10-27T15:01:10.708Z,22.25
2023-10-27T15:06:31.455Z,17.02
2023-10-27T15:11:52.629Z,22.67
2023-10-27T15:17:13.574Z,22.73
2023-10-27T15:22:34.664Z,21.33
2023-10-27T15:27:55.900Z,18.92
2023-10-27T15:33:16.906Z,22.52
2023-10-27T15:38:38.667Z,21.38
2023-10-27T15:44:00.145Z,21.48
2023-10-27T15:49:21.154Z,20.48
2023-10-27T15:54:44.719Z,17.92
2023-10-27T16:00:06.450Z,21.02
2023-10-27T16:05:36.686Z,18.58
2023-10-27T16:10:57.791Z,18.38
2023-10-27T16:16:19.006Z,19.30
2023-10-27T16:21:40.232Z,20.15
2023-10-27T16:27:01.209Z,21.17
2023-10-27T16:32:22.282Z,21.42
2023-10-27T16:37:47.078Z,21.35
2023-10-27T16:43:08.118Z,21.77
2023-10-27T16:48:30.187Z,18.35
2023-10-27T16:53:51.013Z,18.00
2023-10-27T16:59:11.871Z,22.63
2023-10-27T17:04:33.121Z,19.55
2023-10-27T17:09:54.007Z,20.38
2023-10-27T17:15:15.047Z,21.85
2023-10-27T17:20:36.086Z,18.88
2023-10-27T17:25:57.925Z,21.15
2023-10-27T17:31:20.684Z,23.50
2023-10-27T17:36:41.875Z,21.13
2023-10-27T17:42:03.176Z,22.77
2023-10-27T17:47:24.389Z,21.95
2023-10-27T17:52:45.442Z,19.15
2023-10-27T17:58:06.512Z,19.20
2023-10-27T18:03:27.555Z,21.40
2023-10-27T18:08:48.417Z,19.20
2023-10-27T18:14:10.243Z,19.45
2023-10-27T18:19:31.255Z,18.88
2023-10-27T18:24:52.400Z,22.15
2023-10-27T18:30:13.654Z,22.13
2023-10-27T18:35:34.878Z,23.77
2023-10-27T18:40:56.057Z,21.08
2023-10-27T18:46:17.023Z,23.35
2023-10-27T18:51:38.155Z,25.02
2023-10-27T18:56:59.187Z,29.45
2023-10-27T19:02:20.462Z,25.20
2023-10-27T19:07:41.433Z,24.48
2023-10-27T19:13:02.382Z,36.67
2023-10-27T19:18:23.476Z,28.35
2023-10-27T19:23:46.139Z,29.75
2023-10-27T19:29:07.141Z,26.83
2023-10-27T19:34:28.237Z,29.48
2023-10-27T19:39:49.107Z,23.83
2023-10-27T19:45:09.979Z,26.67
2023-10-27T19:50:31.787Z,22.55
2023-10-27T19:55:52.940Z,25.50
2023-10-27T20:01:20.721Z,26.27
2023-10-27T20:06:43.363Z,26.15
2023-10-27T20:12:04.631Z,23.27
2023-10-27T20:17:25.549Z,28.15
2023-10-27T20:22:46.562Z,31.20
2023-10-27T20:28:07.332Z,26.15
2023-10-27T20:33:28.381Z,25.60
2023-10-27T20:38:49.371Z,28.05
2023-10-27T20:44:10.575Z,25.92
2023-10-27T20:49:31.613Z,22.13
2023-10-27T20:54:53.517Z,31.48
2023-10-27T21:00:17.732Z,26.55
2023-10-27T21:05:38.625Z,25.25
2023-10-27T21:11:00.252Z,31.17
2023-10-27T21:16:21.454Z,27.85
2023-10-27T21:21:42.587Z,31.20
2023-10-27T21:27:04.047Z,32.78
2023-10-27T21:32:25.191Z,30.92
2023-10-27T21:37:46.203Z,28.60
2023-10-27T21:43:08.379Z,31.92
2023-10-27T21:48:29.715Z,33.88
2023-10-27T21:53:50.622Z,27.77
2023-10-27T21:59:12.374Z,30.10
2023-10-27T22:04:33.862Z,29.33
2023-10-27T22:09:55.172Z,35.58
2023-10-27T22:15:16.699Z,42.47
2023-10-27T22:20:37.993Z,34.72
2023-10-27T22:25:59.221Z,37.05
2023-10-27T22:31:20.062Z,32.88
2023-10-27T22:36:40.924Z,32.15
2023-10-27T22:42:02.126Z,33.25
2023-10-27T22:47:23.095Z,37.78
2023-10-27T22:52:44.456Z,36.72
2023-10-27T22:58:05.239Z,33.85
2023-10-27T23:03:26.876Z,37.42
2023-10-27T23:08:47.880Z,33.45
2023-10-27T23:14:09.205Z,32.03
2023-10-27T23:19:33.334Z,34.42
2023-10-27T23:24:54.341Z,29.77
2023-10-27T23:30:15.576Z,30.17
2023-10-27T23:35:36.610Z,29.35
2023-10-27T23:40:58.390Z,24.52
2023-10-27T23:46:19.465Z,30.13
2023-10-27T23:51:40.610Z,25.90
2023-10-27T23:57:01.811Z,31.42
